createdAt,value
2023-01-30T00:00:28.720Z,-3.28
2023-01-30T00:02:56.199Z,-2.79
2023-01-30T00:05:26.052Z,-3.08
2023-01-30T00:07:54.946Z,-3.57
2023-01-30T00:10:24.067Z,-2.99
2023-01-30T00:12:52.621Z,-3.07
2023-01-30T00:15:20.042Z,-2.85
2023-01-30T00:17:47.459Z,-2.85
2023-01-30T00:20:15.886Z,-2.84
2023-01-30T00:22:52.471Z,-2.73
2023-01-30T00:25:28.465Z,-3.37
2023-01-30T00:27:56.991Z,-3.32
2023-01-30T00:30:24.553Z,-2.97
2023-01-30T00:32:55.591Z,-3.09
2023-01-30T00:35:28.250Z,-3.06
2023-01-30T00:37:57.758Z,-3.24
2023-01-30T00:40:25.630Z,-3.10
2023-01-30T00:43:12.788Z,-3.14
2023-01-30T00:46:00.088Z,-3.01
2023-01-30T00:48:27.920Z,-3.09
2023-01-30T00:50:55.371Z,-2.90
2023-01-30T00:53:22.838Z,-3.00
2023-01-30T00:55:52.149Z,-3.02
2023-01-30T00:58:20.808Z,-2.93
2023-01-30T01:00:48.304Z,-2.97
2023-01-30T01:03:15.826Z,-2.89
2023-01-30T01:05:43.805Z,-2.79
2023-01-30T01:08:11.302Z,-2.71
2023-01-30T01:10:39.134Z,-2.61
2023-01-30T01:13:07.197Z,-2.50
2023-01-30T01:15:35.974Z,-2.55
2023-01-30T01:18:03.707Z,-2.51
2023-01-30T01:20:31.136Z,-2.48
2023-01-30T01:22:58.876Z,-2.46
2023-01-30T01:25:26.731Z,-2.42
2023-01-30T01:27:55.555Z,-2.41
2023-01-30T01:30:23.045Z,-2.35
2023-01-30T01:32:54.554Z,-2.39
2023-01-30T01:35:21.998Z,-2.31
2023-01-30T01:37:49.531Z,-2.24
2023-01-30T01:40:37.657Z,-2.24
2023-01-30T01:43:15.944Z,-2.30
2023-01-30T01:45:44.581Z,-2.22
2023-01-30T01:48:19.909Z,-2.26
2023-01-30T01:50:51.595Z,-2.21
2023-01-30T01:53:23.797Z,-2.18
2023-01-30T01:55:55.174Z,-2.09
2023-01-30T01:58:27.757Z,-2.08
2023-01-30T02:00:58.371Z,-2.02
2023-01-30T02:03:31.164Z,-2.12
2023-01-30T02:06:01.788Z,-2.09
2023-01-30T02:08:34.284Z,-2.05
2023-01-30T02:11:07.315Z,-2.13
2023-01-30T02:13:35.221Z,-2.13
2023-01-30T02:16:04.179Z,-2.12
2023-01-30T02:18:36.407Z,-2.10
2023-01-30T02:21:27.047Z,-2.08
2023-01-30T02:24:25.874Z,-2.05
2023-01-30T02:27:03.649Z,-2.01
2023-01-30T02:30:09.936Z,-2.02
2023-01-30T02:32:42.901Z,-1.99
2023-01-30T02:35:22.662Z,-1.99
2023-01-30T02:38:05.069Z,-1.98
2023-01-30T02:40:48.017Z,-1.99
2023-01-30T02:43:23.469Z,-1.96
2023-01-30T02:45:53.931Z,-1.93
2023-01-30T02:48:28.203Z,-1.88
2023-01-30T02:51:00.216Z,-1.85
2023-01-30T02:53:32.495Z,-1.87
2023-01-30T02:55:59.969Z,-1.82
2023-01-30T02:58:30.309Z,-1.80
2023-01-30T03:01:25.063Z,-1.80
2023-01-30T03:04:27.351Z,-1.77
2023-01-30T03:07:08.669Z,-1.75
2023-01-30T03:09:45.288Z,-1.73
2023-01-30T03:12:18.137Z,-1.72
2023-01-30T03:14:50.466Z,-1.72
2023-01-30T03:17:21.726Z,-1.73
2023-01-30T03:19:51.082Z,-1.75
2023-01-30T03:22:18.374Z,-1.77
2023-01-30T03:24:45.858Z,-1.78
2023-01-30T03:27:13.852Z,-1.79
2023-01-30T03:29:41.812Z,-1.78
2023-01-30T03:32:09.386Z,-1.76
2023-01-30T03:34:36.801Z,-1.64
2023-01-30T03:37:06.784Z,-1.71
2023-01-30T03:39:34.223Z,-1.73
2023-01-30T03:42:01.872Z,-1.68
2023-01-30T03:44:29.357Z,-1.68
2023-01-30T03:46:56.800Z,-1.62
2023-01-30T03:49:24.429Z,-1.67
2023-01-30T03:51:51.945Z,-1.60
2023-01-30T03:54:20.914Z,-1.63
2023-01-30T03:56:48.362Z,-1.63
2023-01-30T03:59:15.855Z,-1.61
2023-01-30T04:01:43.319Z,-1.58
2023-01-30T04:04:10.934Z,-1.56
2023-01-30T04:06:38.393Z,-1.54
2023-01-30T04:09:05.997Z,-1.56
2023-01-30T04:11:34.798Z,-1.56
2023-01-30T04:14:02.327Z,-1.51
2023-01-30T04:16:29.788Z,-1.50
2023-01-30T04:18:57.284Z,-1.50
2023-01-30T04:21:24.752Z,-1.50
2023-01-30T04:23:52.213Z,-1.50
2023-01-30T04:26:19.670Z,-1.49
2023-01-30T04:28:48.482Z,-1.42
2023-01-30T04:31:15.915Z,-1.45
2023-01-30T04:33:43.842Z,-1.43
2023-01-30T04:36:12.223Z,-1.45
2023-01-30T04:38:40.084Z,-1.42
2023-01-30T04:41:08.373Z,-1.39
2023-01-30T04:43:35.852Z,-1.40
2023-01-30T04:46:04.884Z,-1.39
2023-01-30T04:48:32.477Z,-1.41
2023-01-30T04:51:00.008Z,-1.39
2023-01-30T04:53:27.569Z,-1.39
2023-01-30T04:55:55.019Z,-1.42
2023-01-30T04:58:22.461Z,-1.34
2023-01-30T05:00:50.126Z,-1.39
2023-01-30T05:03:18.964Z,-1.39
2023-01-30T05:05:48.425Z,-1.34
2023-01-30T05:08:16.314Z,-1.35
2023-01-30T05:10:43.808Z,-1.35
2023-01-30T05:13:11.289Z,-1.45
2023-01-30T05:15:40.235Z,-1.46
2023-01-30T05:18:07.670Z,-1.43
2023-01-30T05:20:36.573Z,-1.34
2023-01-30T05:23:04.055Z,-1.39
2023-01-30T05:25:31.541Z,-1.31
2023-01-30T05:27:58.996Z,-1.45
2023-01-30T05:30:26.488Z,-1.39
2023-01-30T05:32:53.942Z,-1.46
2023-01-30T05:35:21.456Z,-1.45
2023-01-30T05:37:53.036Z,-1.36
2023-01-30T05:40:20.485Z,-1.36
2023-01-30T05:42:47.955Z,-1.49
2023-01-30T05:45:15.521Z,-1.51
2023-01-30T05:47:43.017Z,-1.46
2023-01-30T05:50:12.087Z,-1.43
2023-01-30T05:52:39.561Z,-1.42
2023-01-30T05:55:09.448Z,-1.34
2023-01-30T05:57:36.931Z,-1.39
2023-01-30T06:00:05.210Z,-1.28
2023-01-30T06:02:32.710Z,-1.29
2023-01-30T06:05:00.147Z,-1.30
2023-01-30T06:07:27.567Z,-1.24
2023-01-30T06:09:55.060Z,-1.38
2023-01-30T06:12:23.857Z,-1.33
2023-01-30T06:14:51.311Z,-1.23
2023-01-30T06:17:18.736Z,-1.16
2023-01-30T06:19:46.171Z,-1.17
2023-01-30T06:22:13.617Z,-1.21
2023-01-30T06:24:41.053Z,-1.24
2023-01-30T06:27:08.558Z,-1.20
2023-01-30T06:29:37.327Z,-1.20
2023-01-30T06:32:05.165Z,-1.24
2023-01-30T06:34:32.602Z,-1.19
2023-01-30T06:37:00.168Z,-1.15
2023-01-30T06:39:27.609Z,-1.13
2023-01-30T06:41:55.057Z,-1.14
2023-01-30T06:44:22.504Z,-1.15
2023-01-30T06:46:51.274Z,-1.08
2023-01-30T06:49:18.752Z,-1.02
2023-01-30T06:51:46.178Z,-1.05
2023-01-30T06:54:13.733Z,-1.04
2023-01-30T06:56:41.154Z,-1.05
2023-01-30T06:59:08.635Z,-1.06
2023-01-30T07:01:36.138Z,-1.05
2023-01-30T07:04:05.053Z,-0.98
2023-01-30T07:06:32.577Z,-1.03
2023-01-30T07:09:00.123Z,-1.06
2023-01-30T07:11:27.586Z,-1.07
2023-01-30T07:13:55.084Z,-0.99
2023-01-30T07:16:28.588Z,-1.01
2023-01-30T07:18:57.327Z,-1.03
2023-01-30T07:21:27.126Z,-0.98
2023-01-30T07:23:54.695Z,-0.99
2023-01-30T07:26:22.185Z,-0.95
2023-01-30T07:28:49.659Z,-0.98
2023-01-30T07:31:17.164Z,-0.97
2023-01-30T07:33:44.655Z,-0.91
2023-01-30T07:36:12.105Z,-0.96
2023-01-30T07:38:40.867Z,-0.91
2023-01-30T07:41:08.326Z,-0.86
2023-01-30T07:43:35.800Z,-0.85
2023-01-30T07:46:03.927Z,-0.80
2023-01-30T07:48:31.491Z,-0.74
2023-01-30T07:50:58.968Z,-0.71
2023-01-30T07:53:26.466Z,-0.68
2023-01-30T07:55:55.249Z,-0.69
2023-01-30T07:58:22.736Z,-0.65
2023-01-30T08:00:50.209Z,-0.51
2023-01-30T08:03:18.195Z,-0.60
2023-01-30T08:05:47.022Z,-0.53
2023-01-30T08:08:14.603Z,-0.60
2023-01-30T08:10:42.096Z,-0.56
2023-01-30T08:13:13.415Z,-0.60
2023-01-30T08:15:40.869Z,-0.58
2023-01-30T08:18:08.424Z,-0.56
2023-01-30T08:20:36.014Z,-0.51
2023-01-30T08:23:03.549Z,-0.53
2023-01-30T08:25:31.169Z,-0.54
2023-01-30T08:27:59.793Z,-0.55
2023-01-30T08:30:30.226Z,-0.52
2023-01-30T08:32:58.402Z,-0.53
2023-01-30T08:35:25.894Z,-0.55
2023-01-30T08:37:53.320Z,-0.55
2023-01-30T08:40:21.008Z,-0.54
2023-01-30T08:42:48.574Z,-0.56
2023-01-30T08:45:16.048Z,-0.57
2023-01-30T08:47:44.828Z,-0.57
2023-01-30T08:50:12.546Z,-0.58
2023-01-30T08:52:40.112Z,-0.55
2023-01-30T08:55:08.225Z,-0.59
2023-01-30T08:57:35.704Z,-0.60
2023-01-30T09:00:03.616Z,-0.58
2023-01-30T09:02:31.272Z,-0.54
2023-01-30T09:05:00.067Z,-0.57
2023-01-30T09:07:28.691Z,-0.57
2023-01-30T09:09:56.409Z,-0.63
2023-01-30T09:12:24.215Z,-0.62
2023-01-30T09:14:53.017Z,-0.64
2023-01-30T09:17:20.456Z,-0.64
2023-01-30T09:19:47.965Z,-0.64
2023-01-30T09:22:17.483Z,-0.62
2023-01-30T09:24:45.238Z,-0.60
2023-01-30T09:27:13.775Z,-0.60
2023-01-30T09:29:42.672Z,-0.55
2023-01-30T09:32:11.095Z,-0.58
2023-01-30T09:34:38.529Z,-0.53
2023-01-30T09:37:05.959Z,-0.54
2023-01-30T09:39:35.172Z,-0.50
2023-01-30T09:42:14.624Z,-0.50
2023-01-30T09:45:02.377Z,-0.48
2023-01-30T09:47:36.042Z,-0.46
2023-01-30T09:50:21.192Z,-0.43
2023-01-30T09:52:57.295Z,-0.42
2023-01-30T09:55:29.165Z,-0.39
2023-01-30T09:57:58.585Z,-0.38
2023-01-30T10:00:33.076Z,-0.38
2023-01-30T10:03:07.047Z,-0.26
2023-01-30T10:05:40.849Z,-0.29
2023-01-30T10:08:31.728Z,-0.31
2023-01-30T10:11:10.479Z,-0.27
2023-01-30T10:14:07.370Z,-0.22
2023-01-30T10:16:42.366Z,-0.17
2023-01-30T10:19:36.210Z,-0.15
2023-01-30T10:22:16.200Z,-0.11
2023-01-30T10:24:57.575Z,-0.12
2023-01-30T10:27:28.213Z,-0.03
2023-01-30T10:29:58.657Z,-0.06
2023-01-30T10:32:31.577Z,-0.03
2023-01-30T10:35:05.497Z,0.06
2023-01-30T10:37:36.651Z,0.03
2023-01-30T10:40:13.765Z,0.08
2023-01-30T10:42:50.947Z,0.07
2023-01-30T10:45:21.802Z,0.06
2023-01-30T10:48:01.591Z,0.21
2023-01-30T10:50:46.178Z,0.12
2023-01-30T10:53:20.599Z,0.20
2023-01-30T10:55:51.803Z,0.20
2023-01-30T10:58:28.890Z,0.25
2023-01-30T11:01:01.906Z,0.31
2023-01-30T11:03:38.708Z,0.32
2023-01-30T11:06:09.375Z,0.29
2023-01-30T11:08:37.185Z,0.32
2023-01-30T11:11:30.162Z,0.36
2023-01-30T11:14:07.241Z,0.27
2023-01-30T11:16:43.128Z,0.37
2023-01-30T11:19:21.112Z,0.42
2023-01-30T11:21:52.316Z,0.34
2023-01-30T11:24:22.023Z,0.34
2023-01-30T11:26:50.285Z,0.31
2023-01-30T11:29:27.017Z,0.32
2023-01-30T11:31:55.169Z,0.38
2023-01-30T11:34:25.156Z,0.43
2023-01-30T11:36:52.732Z,0.41
2023-01-30T11:39:24.007Z,0.42
2023-01-30T11:42:01.811Z,0.44
2023-01-30T11:44:33.329Z,0.34
2023-01-30T11:47:03.491Z,0.42
2023-01-30T11:49:46.470Z,0.43
2023-01-30T11:52:18.808Z,0.44
2023-01-30T11:54:47.924Z,0.43
2023-01-30T11:57:17.556Z,0.43
2023-01-30T11:59:54.530Z,0.45
2023-01-30T12:02:26.208Z,0.53
2023-01-30T12:04:56.978Z,0.55
2023-01-30T12:07:26.458Z,0.57
2023-01-30T12:09:55.584Z,0.64
2023-01-30T12:12:32.297Z,0.54
2023-01-30T12:15:14.210Z,0.76
2023-01-30T12:17:48.060Z,0.70
2023-01-30T12:20:22.887Z,0.67
2023-01-30T12:23:00.756Z,0.69
2023-01-30T12:25:32.586Z,0.75
2023-01-30T12:28:03.530Z,0.72
2023-01-30T12:30:40.484Z,0.72
2023-01-30T12:33:15.314Z,0.76
2023-01-30T12:36:03.256Z,0.86
2023-01-30T12:38:48.597Z,0.80
2023-01-30T12:41:31.409Z,0.82
2023-01-30T12:44:20.446Z,0.79
2023-01-30T12:47:01.863Z,0.75
2023-01-30T12:49:36.521Z,0.79
2023-01-30T12:52:29.505Z,0.90
2023-01-30T12:55:07.991Z,0.94
2023-01-30T12:57:45.084Z,0.98
2023-01-30T13:00:31.494Z,0.92
2023-01-30T13:03:17.153Z,0.98
2023-01-30T13:05:50.625Z,0.99
2023-01-30T13:08:42.229Z,1.17
2023-01-30T13:11:28.806Z,1.24
2023-01-30T13:14:08.299Z,1.24
2023-01-30T13:16:43.262Z,1.24
2023-01-30T13:19:21.162Z,1.34
2023-01-30T13:22:00.363Z,1.34
2023-01-30T13:24:42.157Z,1.36
2023-01-30T13:27:15.998Z,1.25
2023-01-30T13:29:45.178Z,1.41
2023-01-30T13:32:17.672Z,1.35
2023-01-30T13:34:49.321Z,1.39
2023-01-30T13:37:18.119Z,1.26
2023-01-30T13:39:49.796Z,1.38
2023-01-30T13:42:28.996Z,1.32
2023-01-30T13:44:58.002Z,1.35
2023-01-30T13:47:41.915Z,1.42
2023-01-30T13:50:27.731Z,1.39
2023-01-30T13:53:00.748Z,1.41
2023-01-30T13:55:36.249Z,1.40
2023-01-30T13:58:14.805Z,1.34
2023-01-30T14:00:53.277Z,1.51
2023-01-30T14:03:30.455Z,1.43
2023-01-30T14:06:15.160Z,1.37
2023-01-30T14:08:53.340Z,1.24
2023-01-30T14:11:33.859Z,1.26
2023-01-30T14:14:05.711Z,1.17
2023-01-30T14:16:45.605Z,1.19
2023-01-30T14:19:35.699Z,1.13
2023-01-30T14:22:18.333Z,1.08
2023-01-30T14:24:45.932Z,1.08
2023-01-30T14:27:25.285Z,1.04
2023-01-30T14:29:56.772Z,1.06
2023-01-30T14:32:51.135Z,1.10
2023-01-30T14:35:26.623Z,1.10
2023-01-30T14:38:18.330Z,1.11
2023-01-30T14:41:10.621Z,1.15
2023-01-30T14:43:51.486Z,1.24
2023-01-30T14:46:54.290Z,1.27
2023-01-30T14:49:30.276Z,1.25
2023-01-30T14:51:57.841Z,1.21
2023-01-30T14:54:41.238Z,1.25
2023-01-30T14:57:20.118Z,1.23
2023-01-30T15:00:12.191Z,1.19
2023-01-30T15:02:44.074Z,1.17
2023-01-30T15:05:16.056Z,1.16
2023-01-30T15:07:46.919Z,1.15
2023-01-30T15:10:36.992Z,1.12
2023-01-30T15:13:30.524Z,1.11
2023-01-30T15:16:09.548Z,1.10
2023-01-30T15:19:04.474Z,1.10
2023-01-30T15:21:43.628Z,1.12
2023-01-30T15:24:34.546Z,1.26
2023-01-30T15:27:13.869Z,1.29
2023-01-30T15:29:59.583Z,1.20
2023-01-30T15:32:28.608Z,1.31
2023-01-30T15:34:58.928Z,1.24
2023-01-30T15:37:37.663Z,1.22
2023-01-30T15:40:19.433Z,1.28
2023-01-30T15:42:50.892Z,1.18
2023-01-30T15:45:25.486Z,1.25
2023-01-30T15:48:31.302Z,1.24
2023-01-30T15:51:00.934Z,1.21
2023-01-30T15:53:32.043Z,1.25
2023-01-30T15:56:02.492Z,1.29
2023-01-30T15:58:32.689Z,1.27
2023-01-30T16:01:01.863Z,1.36
2023-01-30T16:03:32.522Z,1.23
2023-01-30T16:06:00.046Z,1.22
2023-01-30T16:08:29.087Z,1.18
2023-01-30T16:10:57.200Z,1.19
2023-01-30T16:13:25.409Z,1.20
2023-01-30T16:15:59.755Z,1.33
2023-01-30T16:18:33.238Z,1.24
2023-01-30T16:21:03.871Z,1.25
2023-01-30T16:23:34.917Z,1.24
2023-01-30T16:26:03.262Z,1.35
2023-01-30T16:28:32.133Z,1.26
2023-01-30T16:31:03.410Z,1.25
2023-01-30T16:33:36.207Z,1.26
2023-01-30T16:36:05.115Z,1.24
2023-01-30T16:38:38.103Z,1.26
2023-01-30T16:41:06.267Z,1.31
2023-01-30T16:43:34.452Z,1.23
2023-01-30T16:46:46.002Z,1.28
2023-01-30T16:49:19.670Z,1.34
2023-01-30T16:51:48.180Z,1.27
2023-01-30T16:54:24.127Z,1.40
2023-01-30T16:56:56.554Z,1.30
2023-01-30T16:59:30.892Z,1.25
2023-01-30T17:02:00.924Z,1.26
2023-01-30T17:04:30.846Z,1.32
2023-01-30T17:07:00.875Z,1.38
2023-01-30T17:09:43.511Z,1.36
2023-01-30T17:12:36.994Z,1.46
2023-01-30T17:15:27.140Z,1.33
2023-01-30T17:17:56.057Z,1.34
2023-01-30T17:20:24.038Z,1.41
2023-01-30T17:22:53.745Z,1.43
2023-01-30T17:25:30.605Z,1.40
2023-01-30T17:27:58.506Z,1.43
2023-01-30T17:30:26.116Z,1.43
2023-01-30T17:32:53.580Z,1.40
2023-01-30T17:35:22.446Z,1.47
2023-01-30T17:37:59.539Z,1.53
2023-01-30T17:40:34.472Z,1.48
2023-01-30T17:43:01.932Z,1.61
2023-01-30T17:45:29.601Z,1.44
2023-01-30T17:47:57.050Z,1.49
2023-01-30T17:50:26.110Z,1.43
2023-01-30T17:52:53.543Z,1.45
2023-01-30T17:55:21.705Z,1.36
2023-01-30T17:57:49.717Z,1.39
2023-01-30T18:00:20.121Z,1.37
2023-01-30T18:02:48.341Z,1.34
2023-01-30T18:05:16.006Z,1.37
2023-01-30T18:07:44.874Z,1.35
2023-01-30T18:10:15.354Z,1.37
2023-01-30T18:12:45.281Z,1.40
2023-01-30T18:15:15.097Z,1.47
2023-01-30T18:17:47.166Z,1.52
2023-01-30T18:20:17.845Z,1.46
2023-01-30T18:22:47.340Z,1.52
2023-01-30T18:25:15.488Z,1.47
2023-01-30T18:27:44.212Z,1.47
2023-01-30T18:30:15.164Z,1.48
2023-01-30T18:32:52.466Z,1.42
2023-01-30T18:35:20.652Z,1.56
2023-01-30T18:37:49.755Z,1.58
2023-01-30T18:40:17.654Z,1.52
2023-01-30T18:42:45.479Z,1.58
2023-01-30T18:45:12.943Z,1.61
2023-01-30T18:47:40.405Z,1.52
2023-01-30T18:50:08.310Z,1.63
2023-01-30T18:52:35.934Z,1.56
2023-01-30T18:55:05.169Z,1.59
2023-01-30T18:57:32.617Z,1.66
2023-01-30T19:00:00.058Z,1.63
2023-01-30T19:02:27.620Z,1.52
2023-01-30T19:04:55.093Z,1.72
2023-01-30T19:07:22.546Z,1.71
2023-01-30T19:09:50.249Z,1.73
2023-01-30T19:12:36.505Z,1.82
2023-01-30T19:15:04.213Z,1.75
2023-01-30T19:17:31.842Z,1.73
2023-01-30T19:20:01.047Z,1.73
2023-01-30T19:22:28.472Z,1.61
2023-01-30T19:24:55.931Z,1.58
2023-01-30T19:27:25.845Z,1.69
2023-01-30T19:29:53.323Z,1.66
2023-01-30T19:32:20.801Z,1.61
2023-01-30T19:34:50.081Z,1.54
2023-01-30T19:37:18.452Z,1.61
2023-01-30T19:39:45.884Z,1.60
2023-01-30T19:42:14.159Z,1.54
2023-01-30T19:44:42.939Z,1.55
2023-01-30T19:47:10.414Z,1.62
2023-01-30T19:49:38.497Z,1.67
2023-01-30T19:52:06.025Z,1.70
2023-01-30T19:54:34.302Z,1.65
2023-01-30T19:57:01.797Z,1.72
2023-01-30T19:59:29.389Z,1.62
2023-01-30T20:01:58.205Z,1.60
2023-01-30T20:04:25.770Z,1.55
2023-01-30T20:06:53.231Z,1.57
2023-01-30T20:09:20.684Z,1.59
2023-01-30T20:11:48.182Z,1.56
2023-01-30T20:14:15.748Z,1.73
2023-01-30T20:16:43.195Z,1.64
2023-01-30T20:19:14.490Z,1.68
2023-01-30T20:21:42.623Z,1.70
2023-01-30T20:24:12.154Z,1.63
2023-01-30T20:26:40.341Z,1.62
2023-01-30T20:29:09.434Z,1.67
2023-01-30T20:31:38.320Z,1.62
2023-01-30T20:34:07.154Z,1.69
2023-01-30T20:36:36.162Z,1.72
2023-01-30T20:39:06.452Z,1.69
2023-01-30T20:41:35.665Z,1.70
2023-01-30T20:44:03.611Z,1.78
2023-01-30T20:46:35.462Z,1.70
2023-01-30T20:49:03.266Z,1.68
2023-01-30T20:51:32.207Z,1.72
2023-01-30T20:54:03.909Z,1.75
2023-01-30T20:56:33.709Z,1.79
2023-01-30T20:59:02.680Z,1.79
2023-01-30T21:01:30.349Z,1.75
2023-01-30T21:03:58.083Z,1.92
2023-01-30T21:06:41.588Z,1.81
2023-01-30T21:09:15.942Z,1.81
2023-01-30T21:11:43.768Z,1.78
2023-01-30T21:14:11.466Z,1.90
2023-01-30T21:16:39.573Z,1.83
2023-01-30T21:19:08.913Z,1.83
2023-01-30T21:21:39.058Z,1.81
2023-01-30T21:24:08.779Z,1.85
2023-01-30T21:26:40.019Z,1.83
2023-01-30T21:29:09.139Z,1.82
2023-01-30T21:31:37.675Z,1.85
2023-01-30T21:34:05.707Z,1.95
2023-01-30T21:36:33.208Z,1.85
2023-01-30T21:39:18.377Z,1.78
2023-01-30T21:42:04.880Z,1.80
2023-01-30T21:44:37.013Z,1.79
2023-01-30T21:47:05.228Z,1.75
2023-01-30T21:49:33.188Z,1.90
2023-01-30T21:52:00.832Z,1.81
2023-01-30T21:54:28.548Z,1.78
2023-01-30T21:56:57.372Z,1.84
2023-01-30T21:59:24.838Z,1.76
2023-01-30T22:01:52.290Z,1.74
2023-01-30T22:04:19.818Z,1.81
2023-01-30T22:06:47.338Z,1.76
2023-01-30T22:09:16.326Z,1.92
2023-01-30T22:11:44.424Z,1.77
2023-01-30T22:14:14.847Z,1.82
2023-01-30T22:16:42.534Z,1.74
2023-01-30T22:19:11.435Z,1.78
2023-01-30T22:21:40.577Z,1.84
2023-01-30T22:24:11.519Z,1.73
2023-01-30T22:26:39.605Z,1.85
2023-01-30T22:29:07.652Z,1.74
2023-01-30T22:31:40.332Z,1.70
2023-01-30T22:34:08.844Z,1.78
2023-01-30T22:36:37.278Z,1.76
2023-01-30T22:39:05.922Z,1.73
2023-01-30T22:41:36.248Z,1.80
2023-01-30T22:44:08.760Z,1.79
2023-01-30T22:46:40.372Z,1.70
2023-01-30T22:49:09.712Z,1.74
2023-01-30T22:51:41.200Z,1.81
2023-01-30T22:54:11.156Z,1.80
2023-01-30T22:56:40.859Z,1.80
2023-01-30T22:59:09.805Z,1.84
2023-01-30T23:01:40.593Z,1.81
2023-01-30T23:04:11.727Z,1.80
2023-01-30T23:06:39.671Z,1.81
2023-01-30T23:09:09.014Z,1.76
2023-01-30T23:11:39.153Z,1.86
2023-01-30T23:14:09.476Z,1.84
2023-01-30T23:16:40.494Z,1.86
2023-01-30T23:19:08.744Z,1.82
2023-01-30T23:21:39.344Z,1.77
2023-01-30T23:24:09.246Z,1.73
2023-01-30T23:26:38.763Z,1.70
2023-01-30T23:29:08.077Z,1.61
2023-01-30T23:31:36.823Z,1.59
2023-01-30T23:34:07.596Z,1.64
2023-01-30T23:36:35.665Z,1.64
2023-01-30T23:39:03.125Z,1.59
2023-01-30T23:41:32.641Z,1.59
2023-01-30T23:44:01.602Z,1.60
2023-01-30T23:46:31.904Z,1.65
2023-01-30T23:49:01.609Z,1.65
2023-01-30T23:51:33.073Z,1.61
2023-01-30T23:54:00.974Z,1.61
2023-01-30T23:56:30.986Z,1.53
2023-01-30T23:58:58.759Z,1.49
